Time;durP1;ratioP1;P1;durP2;ratioP2;P2;SDS_P1;SDS_P2;PMS_P1;PMS_P2;Temp;Humidity;BMP_temperature;BMP_pressure;BME280_temperature;BME280_humidity;BME280_pressure;Samples;Min_cycle;Max_cycle;Signal;HPM_P1;HPM_P2
2021/09/15 00:03:25;;;;;;;0.50;0.30;;;25.20;99.90;;;;;;21027539;28;20318;-72
2021/09/15 00:13:29;;;;;;;0.75;0.63;;;25.20;99.90;;;;;;21011636;28;20198;-71
2021/09/15 00:23:34;;;;;;;0.38;0.30;;;25.10;99.90;;;;;;21025636;28;20681;-72
2021/09/15 00:33:37;;;;;;;0.50;0.40;;;25.10;99.90;;;;;;21027854;28;20708;-71
2021/09/15 00:43:59;;;;;;;13.25;0.75;;;25.10;99.90;;;;;;21022775;28;20319;-71
2021/09/15 00:54:04;;;;;;;0.63;0.47;;;25.00;99.90;;;;;;21026456;28;20532;-72
2021/09/15 01:04:10;;;;;;;0.68;0.65;;;25.00;99.90;;;;;;21025209;28;20240;-72
2021/09/15 01:14:14;;;;;;;0.70;0.63;;;25.20;99.90;;;;;;21023929;28;20195;-72
2021/09/15 01:24:31;;;;;;;1.02;0.20;;;25.10;99.90;;;;;;21022806;28;20223;-71
2021/09/15 01:34:36;;;;;;;1.15;0.85;;;25.10;99.90;;;;;;21023802;28;20236;-72
2021/09/15 01:44:43;;;;;;;0.40;0.40;;;24.90;99.90;;;;;;21005159;28;20685;-74
2021/09/15 01:54:47;;;;;;;1.30;1.20;;;24.70;99.90;;;;;;21035566;28;20602;-71
2021/09/15 02:04:52;;;;;;;0.30;0.28;;;24.70;99.90;;;;;;21020817;28;20236;-71
2021/09/15 02:14:56;;;;;;;0.40;0.40;;;24.60;99.90;;;;;;21036767;28;20188;-72
2021/09/15 02:25:01;;;;;;;1.08;0.63;;;24.40;99.90;;;;;;21036000;28;20489;-72
2021/09/15 02:35:06;;;;;;;0.63;0.30;;;24.30;99.90;;;;;;21034463;28;20724;-72
2021/09/15 02:45:11;;;;;;;3.13;2.00;;;24.20;99.90;;;;;;21035654;28;20489;-71
2021/09/15 02:55:15;;;;;;;0.55;0.40;;;24.20;99.90;;;;;;21031910;28;20195;-72
2021/09/15 03:05:20;;;;;;;1.05;0.85;;;24.10;99.90;;;;;;21033930;28;20235;-72
2021/09/15 03:15:24;;;;;;;0.25;0.08;;;24.10;99.90;;;;;;21032060;28;20301;-72
2021/09/15 03:25:29;;;;;;;0.20;0.20;;;24.00;99.90;;;;;;20997153;28;20228;-71
2021/09/15 03:35:33;;;;;;;0.25;0.20;;;24.00;99.90;;;;;;21014324;28;20237;-71
2021/09/15 03:45:38;;;;;;;0.55;0.43;;;23.90;99.90;;;;;;21030711;28;20255;-71
2021/09/15 03:55:42;;;;;;;0.30;0.30;;;24.00;99.90;;;;;;21029339;28;20197;-71
2021/09/15 04:05:47;;;;;;;0.20;0.00;;;23.90;99.90;;;;;;21029833;28;20631;-72
2021/09/15 04:15:51;;;;;;;2.38;1.98;;;23.90;99.90;;;;;;21025571;28;20438;-71
2021/09/15 04:36:17;;;;;;;4.25;1.55;;;23.90;99.90;;;;;;21026700;28;20200;-74
2021/09/15 04:46:22;;;;;;;0.60;0.57;;;23.80;99.90;;;;;;21007762;28;20517;-73
2021/09/15 04:56:26;;;;;;;0.73;0.70;;;23.80;99.90;;;;;;21024357;28;20199;-72
2021/09/15 05:06:31;;;;;;;0.70;0.68;;;23.80;99.90;;;;;;21025007;28;20350;-71
2021/09/15 05:16:34;;;;;;;1.10;0.65;;;23.80;99.90;;;;;;21021638;28;20224;-71
2021/09/15 05:26:40;;;;;;;0.40;0.32;;;23.80;99.90;;;;;;21026358;28;20226;-73
2021/09/15 05:36:43;;;;;;;0.30;0.30;;;23.80;99.90;;;;;;21040421;28;20214;-73
2021/09/15 05:46:48;;;;;;;1.00;0.68;;;23.70;99.90;;;;;;21036969;28;20592;-73
2021/09/15 05:56:52;;;;;;;0.80;0.43;;;23.70;99.90;;;;;;21032774;28;20192;-69
2021/09/15 06:06:57;;;;;;;0.75;0.45;;;24.00;99.90;;;;;;21010242;28;20231;-72
2021/09/15 06:17:01;;;;;;;1.38;0.63;;;24.00;99.90;;;;;;21033445;28;20249;-73
2021/09/15 06:27:06;;;;;;;0.50;0.30;;;23.90;99.90;;;;;;21016391;28;20337;-72
2021/09/15 06:37:10;;;;;;;1.05;0.40;;;23.90;99.90;;;;;;21013232;28;20203;-74
2021/09/15 06:47:15;;;;;;;2.70;0.60;;;24.00;99.90;;;;;;21020136;28;20220;-70
2021/09/15 06:57:18;;;;;;;0.63;0.45;;;24.30;99.90;;;;;;21031290;28;20206;-73
2021/09/15 07:07:24;;;;;;;1.50;1.40;;;24.40;99.90;;;;;;21027173;28;20241;-74
2021/09/15 07:17:28;;;;;;;1.38;0.65;;;24.80;99.90;;;;;;21032121;28;20873;-72
2021/09/15 07:27:36;;;;;;;7.22;0.93;;;24.90;99.90;;;;;;20993977;28;20212;-72
2021/09/15 07:37:50;;;;;;;1.25;1.15;;;25.20;99.90;;;;;;20996479;28;20703;-73
2021/09/15 07:47:56;;;;;;;1.10;0.90;;;25.30;99.90;;;;;;21030120;28;20409;-70
2021/09/15 07:57:59;;;;;;;5.07;1.02;;;25.90;99.90;;;;;;21008426;28;20188;-74
2021/09/15 08:08:05;;;;;;;1.48;1.38;;;26.30;99.90;;;;;;21008700;28;20671;-71
2021/09/15 08:18:09;;;;;;;0.55;0.55;;;26.90;99.90;;;;;;21025306;28;20192;-69
2021/09/15 08:28:36;;;;;;;1.27;1.17;;;26.80;99.90;;;;;;21025150;28;20629;-70
2021/09/15 08:38:40;;;;;;;1.23;1.17;;;26.50;99.90;;;;;;21005035;28;20499;-70
2021/09/15 08:48:46;;;;;;;5.05;0.88;;;26.40;99.90;;;;;;21006524;28;20212;-72
2021/09/15 08:58:50;;;;;;;0.80;0.60;;;26.40;99.90;;;;;;21021137;28;20215;-71
2021/09/15 09:08:57;;;;;;;1.15;0.85;;;26.20;99.90;;;;;;21021345;28;20576;-70
2021/09/15 09:19:04;;;;;;;2.30;0.73;;;26.60;99.90;;;;;;21019043;28;20192;-74
2021/09/15 09:29:14;;;;;;;4.05;1.33;;;26.70;99.90;;;;;;21007613;28;20521;-70
2021/09/15 09:39:18;;;;;;;1.38;0.95;;;27.10;99.90;;;;;;21021744;28;20518;-70
2021/09/15 09:49:23;;;;;;;6.75;2.20;;;27.50;99.90;;;;;;21021434;28;20310;-71
2021/09/15 09:59:27;;;;;;;1.17;1.00;;;27.80;99.90;;;;;;21022498;28;20212;-71
2021/09/15 10:09:33;;;;;;;0.52;0.52;;;28.10;99.90;;;;;;21022893;28;20224;-72
2021/09/15 10:19:41;;;;;;;1.05;0.88;;;28.00;99.90;;;;;;21037705;28;20609;-70
2021/09/15 10:30:03;;;;;;;0.77;0.75;;;28.30;99.90;;;;;;21034697;28;20296;-70
2021/09/15 10:40:09;;;;;;;1.30;1.20;;;29.20;99.90;;;;;;21031932;28;20202;-70
2021/09/15 10:50:50;;;;;;;0.93;0.85;;;28.70;99.90;;;;;;21031635;28;20309;-69
2021/09/15 11:00:55;;;;;;;1.55;1.27;;;28.80;99.90;;;;;;21034350;28;20741;-70
2021/09/15 11:11:01;;;;;;;1.42;1.27;;;29.00;99.90;;;;;;21030906;28;20223;-71
2021/09/15 11:21:10;;;;;;;0.70;0.70;;;29.50;99.90;;;;;;21011009;28;20312;-70
2021/09/15 11:31:15;;;;;;;1.48;1.38;;;29.70;99.90;;;;;;21011007;28;20764;-72
2021/09/15 11:41:19;;;;;;;4.70;1.35;;;30.20;99.90;;;;;;21027520;28;20204;-71
2021/09/15 11:51:26;;;;;;;2.72;1.48;;;31.30;99.90;;;;;;21010702;28;20441;-72
2021/09/15 12:01:32;;;;;;;6.45;1.67;;;31.10;99.90;;;;;;21025499;28;20230;-70
2021/09/15 12:11:39;;;;;;;10.75;1.30;;;30.50;99.90;;;;;;21027620;28;20236;-74
2021/09/15 12:21:46;;;;;;;1.63;1.10;;;30.30;99.90;;;;;;21004951;28;20187;-74
2021/09/15 12:31:53;;;;;;;1.00;0.98;;;31.20;99.90;;;;;;21017915;28;20223;-72
2021/09/15 12:41:59;;;;;;;2.33;0.90;;;31.60;99.90;;;;;;21017763;28;20455;-71
2021/09/15 12:52:06;;;;;;;3.65;1.73;;;31.70;99.90;;;;;;21023589;28;20760;-71
2021/09/15 13:02:31;;;;;;;1.77;1.30;;;32.30;99.90;;;;;;21026702;28;20337;-73
2021/09/15 13:12:38;;;;;;;1.48;0.93;;;32.70;99.90;;;;;;21022533;28;20214;-72
2021/09/15 13:22:43;;;;;;;2.22;1.02;;;33.00;99.90;;;;;;21022751;28;20192;-72
2021/09/15 13:32:48;;;;;;;1.23;1.02;;;33.00;99.90;;;;;;21020316;28;20239;-72
2021/09/15 13:42:52;;;;;;;2.78;0.93;;;32.40;99.90;;;;;;21024166;28;20188;-71
2021/09/15 13:52:58;;;;;;;4.60;2.28;;;31.60;99.90;;;;;;21037317;28;20362;-72
2021/09/15 14:03:01;;;;;;;1.17;0.88;;;32.60;99.90;;;;;;21038213;28;20698;-73
2021/09/15 14:13:07;;;;;;;1.10;0.90;;;33.80;99.90;;;;;;21036841;28;20219;-74
2021/09/15 14:23:11;;;;;;;4.75;1.70;;;34.20;99.90;;;;;;21035492;28;20247;-75
2021/09/15 14:33:17;;;;;;;5.65;0.93;;;34.90;99.90;;;;;;21034146;28;20196;-72
2021/09/15 14:43:21;;;;;;;1.58;1.42;;;36.70;99.90;;;;;;21017383;28;20316;-72
2021/09/15 14:53:26;;;;;;;1.67;1.05;;;34.40;99.90;;;;;;21016243;28;20492;-71
2021/09/15 15:03:33;;;;;;;3.83;1.52;;;35.00;99.90;;;;;;21031329;28;20715;-71
2021/09/15 15:13:38;;;;;;;0.77;0.73;;;34.80;99.90;;;;;;21031073;28;20204;-71
2021/09/15 15:23:43;;;;;;;1.90;1.48;;;34.40;99.90;;;;;;21028698;28;20236;-73
2021/09/15 15:33:48;;;;;;;2.80;1.65;;;33.00;99.90;;;;;;21028908;28;20200;-70
2021/09/15 15:43:52;;;;;;;5.22;2.58;;;32.30;99.90;;;;;;21025736;28;20216;-72
2021/09/15 15:53:58;;;;;;;4.00;1.90;;;31.30;99.90;;;;;;21028328;28;20254;-75
2021/09/15 16:04:05;;;;;;;1.02;0.88;;;30.00;99.90;;;;;;21024922;28;20228;-74
2021/09/15 16:14:11;;;;;;;0.70;0.57;;;29.10;99.90;;;;;;21026890;28;20681;-72
2021/09/15 16:24:15;;;;;;;5.47;1.58;;;28.80;99.90;;;;;;21024585;28;20711;-73
2021/09/15 16:34:20;;;;;;;4.72;0.80;;;28.60;99.90;;;;;;21007501;28;20199;-75
2021/09/15 16:44:25;;;;;;;0.63;0.50;;;28.40;99.90;;;;;;21024081;28;20518;-71
2021/09/15 16:54:32;;;;;;;4.60;2.38;;;27.90;99.90;;;;;;21021562;28;20200;-74
2021/09/15 17:04:36;;;;;;;2.70;0.75;;;27.80;99.90;;;;;;21022084;28;20227;-72
2021/09/15 17:14:41;;;;;;;2.15;1.10;;;27.70;99.90;;;;;;21001031;28;20207;-73
2021/09/15 17:24:44;;;;;;;1.50;0.80;;;27.60;99.90;;;;;;21032693;28;20639;-73
2021/09/15 17:34:49;;;;;;;2.45;1.83;;;27.20;99.90;;;;;;21036091;28;20204;-73
2021/09/15 17:44:53;;;;;;;1.23;1.13;;;27.10;99.90;;;;;;21018059;28;20848;-71
2021/09/15 17:54:59;;;;;;;3.67;0.93;;;27.00;99.90;;;;;;21034517;28;20342;-71
2021/09/15 18:05:02;;;;;;;1.13;0.90;;;27.00;99.90;;;;;;21034601;28;20327;-72
2021/09/15 18:15:09;;;;;;;3.05;1.10;;;26.80;99.90;;;;;;21036505;28;20635;-72
2021/09/15 18:25:14;;;;;;;0.88;0.80;;;26.60;99.90;;;;;;21035014;28;20277;-71
2021/09/15 18:35:19;;;;;;;10.77;1.25;;;26.60;99.90;;;;;;21032029;28;20219;-73
2021/09/15 18:45:22;;;;;;;1.42;1.30;;;26.60;99.90;;;;;;21033027;28;20200;-73
2021/09/15 18:55:28;;;;;;;0.50;0.32;;;26.50;99.90;;;;;;21030960;28;20518;-73
2021/09/15 19:05:32;;;;;;;1.48;1.38;;;26.60;99.90;;;;;;21032689;28;20752;-73
2021/09/15 19:15:37;;;;;;;1.73;1.05;;;26.80;99.90;;;;;;21030985;28;20215;-71
2021/09/15 19:25:47;;;;;;;4.32;1.27;;;26.90;99.90;;;;;;21011203;28;20661;-72
2021/09/15 19:35:52;;;;;;;1.92;1.42;;;26.80;99.90;;;;;;21031313;28;20257;-72
2021/09/15 19:45:56;;;;;;;6.28;1.00;;;26.40;99.90;;;;;;21027581;28;20237;-71
2021/09/15 19:56:02;;;;;;;10.57;1.55;;;26.30;99.90;;;;;;21027981;28;20234;-72
2021/09/15 20:06:06;;;;;;;0.85;0.85;;;26.30;99.90;;;;;;21010132;28;20776;-72
2021/09/15 20:16:13;;;;;;;4.47;1.73;;;26.30;99.90;;;;;;21026021;28;20224;-72
2021/09/15 20:26:16;;;;;;;7.70;1.48;;;26.20;99.90;;;;;;21026281;28;20204;-72
2021/09/15 20:36:22;;;;;;;0.28;0.28;;;26.10;99.90;;;;;;21005222;28;20357;-69
2021/09/15 20:46:28;;;;;;;0.52;0.47;;;25.80;99.90;;;;;;21024781;28;20667;-69
2021/09/15 20:56:33;;;;;;;0.65;0.65;;;25.60;99.90;;;;;;21021514;28;20448;-69
2021/09/15 21:06:37;;;;;;;1.70;1.15;;;25.40;99.90;;;;;;21024038;28;20801;-68
2021/09/15 21:16:42;;;;;;;1.73;1.25;;;25.40;99.90;;;;;;21022323;28;20255;-68
2021/09/15 21:26:46;;;;;;;4.60;1.10;;;25.60;99.90;;;;;;21024420;28;20200;-67
2021/09/15 21:36:51;;;;;;;0.88;0.50;;;25.40;99.90;;;;;;21023045;28;20228;-69
2021/09/15 21:46:55;;;;;;;2.20;0.73;;;25.10;99.90;;;;;;21024431;28;20196;-71
2021/09/15 21:57:00;;;;;;;0.32;0.28;;;25.20;99.90;;;;;;21021522;28;20310;-71
2021/09/15 22:07:05;;;;;;;3.13;0.45;;;25.20;99.90;;;;;;21007859;28;20309;-72
2021/09/15 22:17:10;;;;;;;1.10;0.65;;;24.90;99.90;;;;;;21036093;28;20239;-71
2021/09/15 22:27:14;;;;;;;0.55;0.50;;;24.80;99.90;;;;;;21034606;28;20536;-72
2021/09/15 22:37:19;;;;;;;4.85;1.05;;;24.70;99.90;;;;;;21035823;28;20228;-71
2021/09/15 22:47:23;;;;;;;6.72;0.90;;;24.60;99.90;;;;;;21035179;28;20200;-71
2021/09/15 22:57:28;;;;;;;4.93;2.15;;;24.70;99.90;;;;;;21017669;28;20224;-72
2021/09/15 23:07:32;;;;;;;2.00;0.75;;;24.70;99.90;;;;;;21014442;28;20310;-71
2021/09/15 23:17:39;;;;;;;1.45;0.73;;;24.70;99.90;;;;;;21013157;28;20227;-71
2021/09/15 23:27:43;;;;;;;1.38;1.17;;;24.80;99.90;;;;;;21029641;28;20230;-72
2021/09/15 23:37:49;;;;;;;1.08;1.05;;;24.90;99.90;;;;;;21032048;28;21017;-72
2021/09/15 23:47:53;;;;;;;4.00;1.48;;;24.70;99.90;;;;;;21010072;28;20720;-72
2021/09/15 23:57:58;;;;;;;0.32;0.32;;;24.70;99.90;;;;;;21030767;28;20684;-71
